• Join FlightAware (Why Join?)
  • Login
  • US Flag 
06:55AM EDT


 

Airport Tracker/Info


-or-


 

Live Flight TrackerFlight Track Log ✈ N508QS ✈ 19-May-2013 ✈ KTEB - KOCF

Flight Track Log - Related Links

Times and Time Zones

All times are in EDT time to prevent confusion due to time zone crossing. See the N508QS flight status page for this flight to view local times or setup timezone preferences in your user account.

Time Position Orientation Groundspeed Altitude Reporting Facility
EDT Latitude Longitude Course Direction KTS MPH feet Rate Location/Type
01:53PM 40.8167 -74.1500 201° Southwest 210 242 1,700  Level New York TRACON
01:54PM 40.8167 -74.2333 270° West 251 289 5,200 2,520 Climbing New York TRACON
01:55PM 40.7500 -74.2833 210° Southwest 264 304 6,800 2,940 Climbing New York TRACON
01:56PM 40.6833 -74.2667 169° South 272 313 11,100 3,540 Climbing New York TRACON
01:57PM 40.6000 -74.2500 171° South 333 383 13,900 2,520 Climbing New York TRACON
01:58PM 40.4833 -74.2167 168° South 405 466 16,200 1,200 Climbing New York TRACON
01:59PM 40.1512 -74.1994 201° Southwest  Level FlightAware Approximate
02:00PM 40.3169 -74.1681 167° South 436 502 17,100  Level New York Center
02:01PM 40.2014 -74.1950 190° South 415 478 19,000 2,340 Climbing New York Center
02:02PM 40.0122 -74.2533 193° South 454 522 22,900 2,580 Climbing Washington Center
02:03PM 39.9069 -74.3472 214° Southwest 454 522 25,400 2,160 Climbing Washington Center
02:04PM 39.8142 -74.4328 215° Southwest 454 522 27,300 1,920 Climbing Washington Center
02:05PM 39.7175 -74.5583 225° Southwest 476 548 29,300 2,160 Climbing Washington Center
02:06PM 39.6225 -74.6864 226° Southwest 487 560 31,700 2,520 Climbing Washington Center
02:07PM 39.5297 -74.8114 226° Southwest 487 560 34,400 2,640 Climbing Washington Center
02:08PM 39.4386 -74.9306 225° Southwest 487 560 37,000 2,400 Climbing Washington Center
02:09PM 39.3433 -75.0494 224° Southwest 481 554 39,300 1,980 Climbing Washington Center
02:10PM 39.2292 -75.1361 210° Southwest 476 548 41,100 1,500 Climbing Washington Center
02:11PM 39.1128 -75.2144 208° Southwest 476 548 42,400 960 Climbing Washington Center
02:12PM 38.9942 -75.2925 207° Southwest 482 555 43,000 300 Climbing Washington Center
02:13PM 38.8672 -75.3756 207° Southwest 493 567 43,000  Level Washington Center
02:14PM 38.7403 -75.4586 207° Southwest 506 582 43,000  Level Washington Center
02:15PM 38.6153 -75.5358 206° Southwest 512 589 43,000  Level Washington Center
02:16PM 38.4922 -75.6183 208° Southwest 507 583 43,000  Level Washington Center
02:17PM 38.3711 -75.6975 207° Southwest 502 578 43,000  Level Washington Center
02:18PM 38.2333 -75.7847 206° Southwest 502 578 43,000  Level Washington Center
02:19PM 38.1122 -75.8636 207° Southwest 497 572 43,000 780 Level Washington Center
02:20PM 37.9933 -75.9394 207° Southwest 497 572 44,600 1,380 Climbing Washington Center
02:21PM 37.8825 -76.0100 207° Southwest 476 548 45,800 780 Climbing Washington Center
02:22PM 37.7697 -76.0936 210° Southwest 468 539 46,200 240 Climbing Washington Center
02:23PM 37.6775 -76.1533 207° Southwest 468 539 46,300 360 Climbing Washington Center
02:24PM 37.5417 -76.2256 203° Southwest 474 545 47,000 300 Climbing Washington Center
02:25PM 37.4222 -76.3006 207° Southwest 474 545 47,000  Level Washington Center
02:26PM 37.3031 -76.3750 206° Southwest 474 545 47,000  Level Washington Center
02:27PM 37.1731 -76.4572 207° Southwest 474 545 47,000  Level Washington Center
02:28PM 37.0536 -76.5339 207° Southwest 474 545 47,000  Level Washington Center
02:29PM 36.9342 -76.6078 206° Southwest 474 545 47,000  Level Washington Center
02:30PM 36.8125 -76.6842 207° Southwest 474 545 47,000  Level Washington Center
02:31PM 36.7158 -76.7425 206° Southwest 474 545 47,000  Level Washington Center
02:32PM 36.5711 -76.8308 206° Southwest 474 545 47,000  Level Washington Center
02:33PM 36.4514 -76.9064 207° Southwest 474 545 47,000  Level Washington Center
02:34PM 36.3422 -76.9742 207° Southwest 479 551 47,000  Level Washington Center
02:35PM 36.2222 -77.0467 206° Southwest 479 551 47,000  Level Washington Center
02:36PM 36.1006 -77.1189 206° Southwest 484 557 47,000  Level Washington Center
02:37PM 35.9847 -77.1911 207° Southwest 474 545 47,000  Level Washington Center
02:38PM 35.8647 -77.2631 206° Southwest 474 545 47,000  Level Washington Center
02:39PM 35.7344 -77.3397 206° Southwest 469 540 47,000  Level Washington Center
02:40PM 35.6144 -77.4111 206° Southwest 469 540 47,000  Level Washington Center
02:41PM 35.4942 -77.4850 207° Southwest 474 545 47,000  Level Washington Center
02:42PM 35.3722 -77.5561 205° Southwest 474 545 47,000  Level Washington Center
02:43PM 35.2725 -77.6553 219° Southwest 474 545 47,000  Level Washington Center
02:44PM 35.1725 -77.7594 220° Southwest 474 545 47,000  Level Washington Center
02:45PM 35.0703 -77.8658 220° Southwest 480 552 47,000  Level Washington Center
02:46PM 34.9725 -77.9694 221° Southwest 480 552 47,000  Level Washington Center
02:47PM 34.8700 -78.0728 220° Southwest 480 552 47,000  Level Washington Center
02:49PM 34.6742 -78.2831 221° Southwest 475 547 47,000  Level Jacksonville Center
02:50PM 34.5736 -78.3842 220° Southwest 470 541 47,000  Level Jacksonville Center
02:51PM 34.4750 -78.4850 220° Southwest 470 541 47,000  Level Jacksonville Center
02:52PM 34.3719 -78.5858 219° Southwest 470 541 47,000  Level Jacksonville Center
02:53PM 34.2714 -78.6889 220° Southwest 475 547 47,000  Level Jacksonville Center
02:54PM 34.1703 -78.7892 219° Southwest 475 547 47,000 -60 Level Jacksonville Center
02:55PM 34.0672 -78.8917 219° Southwest 480 552 46,900  Descending Jacksonville Center
02:56PM 33.9725 -78.9961 222° Southwest 480 552 47,000  Climbing Jacksonville Center
02:57PM 33.8711 -79.1008 221° Southwest 480 552 47,000  Level Jacksonville Center
02:58PM 33.7764 -79.2047 222° Southwest 474 545 47,000 -60 Level Jacksonville Center
02:59PM 33.6911 -79.2956 222° Southwest 474 545 46,900  Descending Jacksonville Center
03:00PM 33.5919 -79.4019 222° Southwest 468 539 47,000  Climbing Jacksonville Center
03:01PM 33.4947 -79.5078 222° Southwest 475 547 47,000  Level Jacksonville Center
03:02PM 33.3953 -79.6111 221° Southwest 480 552 47,000  Level Jacksonville Center
03:03PM 33.2956 -79.7167 222° Southwest 480 552 47,000  Level Jacksonville Center
03:04PM 33.2000 -79.8194 222° Southwest 475 547 47,000  Level Jacksonville Center
03:05PM 33.1003 -79.9219 221° Southwest 480 552 47,000  Level Jacksonville Center
03:06PM 32.9983 -80.0219 219° Southwest 480 552 47,000  Level Jacksonville Center
03:07PM 32.8961 -80.1267 221° Southwest 480 552 47,000  Level Jacksonville Center
03:08PM 32.8025 -80.2333 224° Southwest 480 552 47,000 -60 Level Jacksonville Center
03:09PM 32.7064 -80.3350 222° Southwest 475 547 46,900  Descending Jacksonville Center
03:10PM 32.6103 -80.4361 222° Southwest 475 547 47,000  Climbing Jacksonville Center
03:11PM 32.5100 -80.5400 221° Southwest 475 547 47,000  Level Jacksonville Center
03:12PM 32.4094 -80.6411 220° Southwest 481 554 47,000  Level Jacksonville Center
03:13PM 32.3133 -80.7442 222° Southwest 481 554 47,000  Level Jacksonville Center
03:14PM 32.2106 -80.8522 222° Southwest 467 537 47,000  Level Jacksonville Center
03:15PM 32.1097 -80.9475 219° Southwest 473 544 47,000  Level Jacksonville Center
03:16PM 32.0172 -81.0403 220° Southwest 479 551 47,000  Level Jacksonville Center
03:17PM 31.9083 -81.1525 221° Southwest 478 550 47,000  Level Jacksonville Center
03:18PM 31.8114 -81.2522 221° Southwest 471 542 47,000 -600 Level Jacksonville Center
03:19PM 31.7269 -81.3392 221° Southwest 466 536 45,900 -1,440 Descending Jacksonville Center
03:20PM 31.6217 -81.4483 221° Southwest 461 531 44,200 -1,560 Descending Jacksonville Center
03:21PM 31.5417 -81.5617 230° Southwest 454 522 42,800 -1,500 Descending Jacksonville Center
03:22PM 31.4631 -81.6503 224° Southwest 444 511 41,300 -1,440 Descending Jacksonville Center
03:23PM 31.3617 -81.7564 222° Southwest 450 518 40,000 -960 Descending Jacksonville Center
03:24PM 31.2728 -81.8450 220° Southwest 455 524 39,400 -1,020 Descending Jacksonville Center
03:25PM 31.1733 -81.9358 218° Southwest 460 529 38,000 -720 Descending Jacksonville Center
03:26PM 31.0717 -82.0339 220° Southwest 471 542 38,000 -60 Level Jacksonville Center
03:27PM 30.9719 -82.1269 219° Southwest 471 542 37,900  Descending Jacksonville Center
03:28PM 30.9311 -82.2581 250° West 443 510 38,000 -60 Climbing Jacksonville Center
03:29PM 30.9169 -82.3961 263° West 423 487 37,800 -1,800 Descending Jacksonville Center
03:30PM 30.9028 -82.5367 263° West 435 501 34,400 -3,900 Descending Jacksonville Center
03:31PM 30.8281 -82.6458 231° Southwest 417 480 30,100 -3,900 Descending Jacksonville Center
03:32PM 30.6922 -82.6511 182° South 402 463 26,700 -3,060 Descending Jacksonville Center
03:33PM 30.5583 -82.5814 156° South 393 452 24,000 -1,860 Descending Jacksonville Center
03:34PM 30.4414 -82.5408 163° South 414 476 23,000 -1,500 Descending Jacksonville Center
03:35PM 30.3244 -82.5100 167° South 431 496 21,100 -1,920 Descending Jacksonville Center
03:36PM 30.2094 -82.4817 168° South 431 496 19,200 -1,920 Descending Jacksonville Center
03:37PM 30.0967 -82.4581 170° South 402 463 17,400 -1,800 Descending Jacksonville Center
03:38PM 30.0025 -82.4297 165° South 413 475 15,700 -1,920 Descending Jacksonville Center
03:39PM 29.9253 -82.4133 170° South 391 450 14,300 -2,040 Descending Jacksonville Center
03:39PM 29.8961 -82.4039 164° South 402 463 13,700 -2,100 Descending Jacksonville Center
03:40PM 29.8500 -82.3919 167° South 383 441 12,800 -2,040 Descending Jacksonville Center
03:40PM 29.7958 -82.3781 167° South 386 444 11,700 -1,560 Descending Jacksonville Center
03:41PM 29.7436 -82.3686 171° South 321 369 11,100 -1,200 Descending Jacksonville Center
03:41PM 29.7122 -82.3544 159° South 351 404 10,500 -1,680 Descending Jacksonville Center
03:42PM 29.6642 -82.3428 168° South 291 335 9,400 -1,920 Descending Jacksonville Center
03:42PM 29.6328 -82.3311 162° South 315 362 8,600 -1,800 Descending Jacksonville Center
03:43PM 29.5950 -82.3217 168° South 289 333 7,800 -2,040 Descending Jacksonville Center
03:43PM 29.5575 -82.3028 156° South 297 342 6,600 -1,920 Descending Jacksonville Center
03:44PM 29.5219 -82.2958 170° South 278 320 5,900 -1,740 Descending Jacksonville Center
03:44PM 29.4822 -82.2819 163° South 286 329 4,900 -1,800 Descending Jacksonville Center
03:45PM 29.4258 -82.2678 168° South 269 310 3,600 -1,740 Descending Jacksonville Center
03:45PM 29.4111 -82.2631 164° South 275 316 3,200 -600 Descending Jacksonville Center
03:46PM 29.3547 -82.2517 170° South 231 266 3,000 -300 Descending Jacksonville Center
03:46PM 29.3464 -82.2444 143° Southeast 260 299 2,900 -600 Descending Jacksonville Center
03:47PM 29.2942 -82.2331 169° South 221 254 2,400 -780 Descending Jacksonville Center
03:48PM 29.2481 -82.2239 170° South 171 197 1,700 -840 Descending Jacksonville Center
03:49PM 29.2064 -82.2242 180° South 127 146 700 -900 Descending Jacksonville Center